createdAt,value
2023-01-17T00:02:12.097Z,3.45
2023-01-17T00:06:12.683Z,4.10
2023-01-17T00:09:54.553Z,4.32
2023-01-17T00:13:36.428Z,4.57
2023-01-17T00:17:18.161Z,3.95
2023-01-17T00:21:18.770Z,4.22
2023-01-17T00:25:19.145Z,5.13
2023-01-17T00:29:00.892Z,3.85
2023-01-17T00:32:42.574Z,4.82
2023-01-17T00:36:24.283Z,3.75
2023-01-17T00:40:06.606Z,3.45
2023-01-17T00:44:07.093Z,3.25
2023-01-17T00:48:07.568Z,4.25
2023-01-17T00:52:08.123Z,4.10
2023-01-17T00:56:08.712Z,3.88
2023-01-17T01:00:09.294Z,3.80
2023-01-17T01:04:09.887Z,3.45
2023-01-17T01:08:10.403Z,4.25
2023-01-17T01:12:10.777Z,4.28
2023-01-17T01:16:11.235Z,4.78
2023-01-17T01:20:11.523Z,3.85
2023-01-17T01:24:11.969Z,4.50
2023-01-17T01:28:20.583Z,3.80
2023-01-17T01:32:21.014Z,4.90
2023-01-17T01:36:02.877Z,4.68
2023-01-17T01:39:44.636Z,5.65
2023-01-17T01:43:49.262Z,5.45
2023-01-17T01:47:35.308Z,5.88
2023-01-17T01:51:23.736Z,4.60
2023-01-17T01:55:16.543Z,4.78
2023-01-17T01:59:01.402Z,4.72
2023-01-17T02:02:45.821Z,4.93
2023-01-17T02:06:33.618Z,6.20
2023-01-17T02:10:15.800Z,5.53
2023-01-17T02:13:57.541Z,5.25
2023-01-17T02:17:57.356Z,5.60
2023-01-17T02:22:28.563Z,4.78
2023-01-17T02:26:31.505Z,5.03
2023-01-17T02:30:31.859Z,5.20
2023-01-17T02:34:24.771Z,5.13
2023-01-17T02:38:10.572Z,6.20
2023-01-17T02:41:57.853Z,5.43
2023-01-17T02:45:40.059Z,6.35
2023-01-17T02:49:25.990Z,6.72
2023-01-17T02:53:38.744Z,6.18
2023-01-17T02:57:44.609Z,6.05
2023-01-17T03:01:51.349Z,6.80
2023-01-17T03:05:43.302Z,7.00
2023-01-17T03:09:26.664Z,6.88
2023-01-17T03:13:08.423Z,6.30
2023-01-17T03:16:50.283Z,6.80
2023-01-17T03:20:32.044Z,6.50
2023-01-17T03:24:14.034Z,7.28
2023-01-17T03:27:55.838Z,8.48
2023-01-17T03:31:37.630Z,6.70
2023-01-17T03:35:19.507Z,7.57
2023-01-17T03:39:02.996Z,7.30
2023-01-17T03:42:44.909Z,8.93
2023-01-17T03:46:28.730Z,8.80
2023-01-17T03:50:11.859Z,7.28
2023-01-17T03:53:53.782Z,7.10
2023-01-17T03:57:35.555Z,8.35
2023-01-17T04:01:17.528Z,7.43
2023-01-17T04:04:59.381Z,7.13
2023-01-17T04:08:41.672Z,6.93
2023-01-17T04:12:23.523Z,7.65
2023-01-17T04:16:05.707Z,8.27
2023-01-17T04:19:47.695Z,6.35
2023-01-17T04:23:29.481Z,6.57
2023-01-17T04:27:14.266Z,7.18
2023-01-17T04:31:00.189Z,6.28
2023-01-17T04:34:42.130Z,7.15
2023-01-17T04:38:24.203Z,7.18
2023-01-17T04:42:06.029Z,6.63
2023-01-17T04:45:48.026Z,7.30
2023-01-17T04:49:29.810Z,7.40
2023-01-17T04:53:11.559Z,6.72
2023-01-17T04:56:53.380Z,7.43
2023-01-17T05:00:35.139Z,6.68
2023-01-17T05:04:17.042Z,6.75
2023-01-17T05:07:59.959Z,7.45
2023-01-17T05:11:41.836Z,7.13
2023-01-17T05:15:24.574Z,7.00
2023-01-17T05:19:06.308Z,7.65
2023-01-17T05:22:57.866Z,8.23
2023-01-17T05:26:40.744Z,7.07
2023-01-17T05:30:23.195Z,8.40
2023-01-17T05:34:04.953Z,9.20
2023-01-17T05:37:49.367Z,9.20
2023-01-17T05:41:31.167Z,10.50
2023-01-17T05:45:16.746Z,8.52
2023-01-17T05:48:59.054Z,10.15
2023-01-17T05:52:41.424Z,9.30
2023-01-17T05:56:23.277Z,10.40
2023-01-17T06:00:05.635Z,10.23
2023-01-17T06:03:47.434Z,10.48
2023-01-17T06:07:29.169Z,9.65
2023-01-17T06:11:10.916Z,10.63
2023-01-17T06:14:52.996Z,10.93
2023-01-17T06:18:34.817Z,10.65
2023-01-17T06:22:16.562Z,10.40
2023-01-17T06:26:01.645Z,9.65
2023-01-17T06:29:43.455Z,11.48
2023-01-17T06:33:25.210Z,10.55
2023-01-17T06:37:07.587Z,11.18
2023-01-17T06:40:49.562Z,10.95
2023-01-17T06:44:31.362Z,9.98
2023-01-17T06:48:13.262Z,11.25
2023-01-17T06:51:55.068Z,11.57
2023-01-17T06:55:40.215Z,14.15
2023-01-17T06:59:22.089Z,12.70
2023-01-17T07:03:03.947Z,12.43
2023-01-17T07:18:20.719Z,15.40
2023-01-17T07:22:02.605Z,12.45
2023-01-17T07:39:43.259Z,13.88
2023-01-17T07:43:25.101Z,13.70
2023-01-17T07:47:06.873Z,12.35
2023-01-17T07:50:54.932Z,12.77
2023-01-17T07:54:36.764Z,12.82
2023-01-17T07:58:18.691Z,13.85
2023-01-17T08:02:00.818Z,12.25
2023-01-17T08:05:44.633Z,13.52
2023-01-17T08:09:26.579Z,12.32
2023-01-17T08:13:08.367Z,12.82
2023-01-17T08:16:50.107Z,13.77
2023-01-17T08:20:31.880Z,13.07
2023-01-17T08:24:14.629Z,11.93
2023-01-17T08:27:57.782Z,11.52
2023-01-17T08:31:39.584Z,12.70
2023-01-17T08:35:21.895Z,12.98
2023-01-17T08:39:03.719Z,13.43
2023-01-17T08:42:53.046Z,11.50
2023-01-17T08:46:37.251Z,12.60
2023-01-17T08:50:20.757Z,12.07
2023-01-17T08:54:02.561Z,13.35
2023-01-17T08:57:44.323Z,12.60
2023-01-17T09:01:26.252Z,12.65
2023-01-17T09:05:08.280Z,12.65
2023-01-17T09:08:52.106Z,13.23
2023-01-17T09:12:34.409Z,11.63
2023-01-17T09:16:16.265Z,13.27
2023-01-17T09:19:59.442Z,13.80
2023-01-17T09:23:42.271Z,13.10
2023-01-17T09:27:24.038Z,12.00
2023-01-17T09:31:08.144Z,11.63
2023-01-17T09:34:50.093Z,11.43
2023-01-17T09:38:32.440Z,21.10
2023-01-17T09:42:17.163Z,20.33
2023-01-17T09:45:59.050Z,14.60
2023-01-17T09:49:45.476Z,14.85
2023-01-17T09:53:30.456Z,14.25
2023-01-17T09:57:36.431Z,13.38
2023-01-17T10:01:41.358Z,13.32
2023-01-17T10:05:23.545Z,13.00
2023-01-17T10:09:28.745Z,14.23
2023-01-17T10:13:45.877Z,12.60
2023-01-17T10:21:55.487Z,13.75
2023-01-17T10:26:01.368Z,13.88
2023-01-17T10:29:45.831Z,15.10
2023-01-17T10:33:39.507Z,14.63
2023-01-17T10:37:23.443Z,13.15
2023-01-17T10:41:16.900Z,14.10
2023-01-17T10:45:07.573Z,14.75
2023-01-17T10:48:52.548Z,13.57
2023-01-17T10:52:55.710Z,13.27
2023-01-17T10:56:40.859Z,11.15
2023-01-17T11:00:28.697Z,9.07
2023-01-17T11:04:20.712Z,9.93
2023-01-17T11:08:07.931Z,9.80
2023-01-17T11:11:51.592Z,8.05
2023-01-17T11:15:39.464Z,9.10
2023-01-17T11:19:29.768Z,9.80
2023-01-17T11:23:24.292Z,8.95
2023-01-17T11:27:07.297Z,10.40
2023-01-17T11:30:55.427Z,9.82
2023-01-17T11:34:38.186Z,8.68
2023-01-17T11:38:22.156Z,9.60
2023-01-17T11:42:06.546Z,8.82
2023-01-17T11:46:18.696Z,8.73
2023-01-17T11:50:00.541Z,8.23
2023-01-17T11:53:48.866Z,8.15
2023-01-17T11:57:34.228Z,7.70
2023-01-17T12:01:42.313Z,7.03
2023-01-17T12:05:30.077Z,6.53
2023-01-17T12:09:23.028Z,6.97
2023-01-17T12:13:32.658Z,6.85
2023-01-17T12:17:25.966Z,7.03
2023-01-17T12:21:29.755Z,7.60
2023-01-17T12:25:15.109Z,7.07
2023-01-17T12:29:02.376Z,7.22
2023-01-17T12:33:16.307Z,6.13
2023-01-17T12:37:18.099Z,6.35
2023-01-17T12:41:06.575Z,6.47
2023-01-17T12:45:20.269Z,6.38
2023-01-17T12:49:29.914Z,6.25
2023-01-17T12:53:50.852Z,7.20
2023-01-17T12:57:39.795Z,6.68
2023-01-17T13:01:43.305Z,6.55
2023-01-17T13:05:37.094Z,6.97
2023-01-17T13:09:22.833Z,6.95
2023-01-17T13:13:25.585Z,6.35
2023-01-17T13:17:25.899Z,6.35
2023-01-17T13:21:31.778Z,5.50
2023-01-17T13:25:41.128Z,4.60
2023-01-17T13:30:01.143Z,5.13
2023-01-17T13:33:46.304Z,3.92
2023-01-17T13:37:45.140Z,4.60
2023-01-17T13:41:58.285Z,4.30
2023-01-17T13:45:40.386Z,3.40
2023-01-17T13:49:34.472Z,2.63
2023-01-17T13:53:34.671Z,2.97
2023-01-17T13:57:30.229Z,3.22
2023-01-17T14:01:12.355Z,4.18
2023-01-17T14:05:11.611Z,4.43
2023-01-17T14:08:53.805Z,4.38
2023-01-17T14:12:38.616Z,4.80
2023-01-17T14:16:31.361Z,3.90
2023-01-17T14:20:15.714Z,4.53
2023-01-17T14:24:15.059Z,5.32
2023-01-17T14:28:18.185Z,4.57
2023-01-17T14:32:02.105Z,5.80
2023-01-17T14:35:54.391Z,7.30
2023-01-17T14:39:44.966Z,7.35
2023-01-17T14:43:32.348Z,7.43
2023-01-17T14:51:00.109Z,7.60
2023-01-17T14:54:52.521Z,6.38
2023-01-17T14:58:39.425Z,6.65
2023-01-17T15:02:21.357Z,5.90
2023-01-17T15:06:16.852Z,5.60
2023-01-17T15:09:58.683Z,4.15
2023-01-17T15:13:47.365Z,4.38
2023-01-17T15:17:29.121Z,4.30
2023-01-17T15:21:15.931Z,4.53
2023-01-17T15:24:58.821Z,4.07
2023-01-17T15:28:41.130Z,4.55
2023-01-17T15:32:24.863Z,4.30
2023-01-17T15:36:11.298Z,4.05
2023-01-17T15:40:04.679Z,4.45
2023-01-17T15:43:46.638Z,4.53
2023-01-17T15:47:32.193Z,5.75
2023-01-17T15:51:14.123Z,4.30
2023-01-17T15:55:13.338Z,4.25
2023-01-17T15:58:55.119Z,4.93
2023-01-17T16:02:45.088Z,5.93
2023-01-17T16:06:47.788Z,6.57
2023-01-17T16:10:31.846Z,6.97
2023-01-17T16:14:13.596Z,5.97
2023-01-17T16:18:16.592Z,6.28
2023-01-17T16:22:02.693Z,7.75
2023-01-17T16:25:46.205Z,7.70
2023-01-17T16:29:28.040Z,9.75
2023-01-17T16:33:13.567Z,9.82
2023-01-17T16:36:55.327Z,7.72
2023-01-17T16:40:44.384Z,6.47
2023-01-17T16:44:26.157Z,8.65
2023-01-17T16:48:08.591Z,6.80
2023-01-17T16:51:51.763Z,6.88
2023-01-17T16:55:33.732Z,7.15
2023-01-17T16:59:15.549Z,7.53
2023-01-17T17:02:57.349Z,8.00
2023-01-17T17:06:39.505Z,8.48
2023-01-17T17:10:25.175Z,8.05
2023-01-17T17:14:07.373Z,8.18
2023-01-17T17:17:49.914Z,8.13
2023-01-17T17:21:33.881Z,7.97
2023-01-17T17:25:15.996Z,11.23
2023-01-17T17:28:57.937Z,8.50
2023-01-17T17:32:39.670Z,7.75
2023-01-17T17:36:21.415Z,7.53
2023-01-17T17:40:04.195Z,8.23
2023-01-17T17:43:46.805Z,8.50
2023-01-17T17:47:30.487Z,7.55
2023-01-17T17:51:36.411Z,8.65
2023-01-17T17:55:19.057Z,7.88
2023-01-17T17:59:02.408Z,8.02
2023-01-17T18:02:44.185Z,7.00
2023-01-17T18:06:25.974Z,7.38
2023-01-17T18:10:08.543Z,8.40
2023-01-17T18:13:51.862Z,7.95
2023-01-17T18:17:33.643Z,7.93
2023-01-17T18:21:27.133Z,8.80
2023-01-17T18:25:11.475Z,7.75
2023-01-17T18:28:54.712Z,6.47
2023-01-17T18:32:37.966Z,7.75
2023-01-17T18:36:20.236Z,10.77
2023-01-17T18:40:02.033Z,9.50
2023-01-17T18:43:44.053Z,9.88
2023-01-17T18:47:29.824Z,10.07
2023-01-17T18:51:14.396Z,10.40
2023-01-17T18:54:56.200Z,7.90
2023-01-17T18:58:43.041Z,8.18
2023-01-17T19:02:24.808Z,7.50
2023-01-17T19:06:08.200Z,8.30
2023-01-17T19:09:50.053Z,9.15
2023-01-17T19:13:32.959Z,10.73
2023-01-17T19:17:14.731Z,9.57
2023-01-17T19:21:02.996Z,9.50
2023-01-17T19:24:44.745Z,10.50
2023-01-17T19:28:26.564Z,9.80
2023-01-17T19:32:09.712Z,9.60
2023-01-17T19:35:51.643Z,11.10
2023-01-17T19:39:33.553Z,10.30
2023-01-17T19:43:15.303Z,9.40
2023-01-17T19:46:57.074Z,9.40
2023-01-17T19:50:38.807Z,9.32
2023-01-17T19:54:20.545Z,9.18
2023-01-17T19:58:02.284Z,9.80
2023-01-17T20:01:44.127Z,10.13
2023-01-17T20:05:25.937Z,11.10
2023-01-17T20:09:08.014Z,10.85
2023-01-17T20:12:49.921Z,12.48
2023-01-17T20:16:32.740Z,10.35
2023-01-17T20:20:15.760Z,10.05
2023-01-17T20:23:59.634Z,10.18
2023-01-17T20:27:41.507Z,10.90
2023-01-17T20:31:25.970Z,14.75
2023-01-17T20:35:09.239Z,12.75
2023-01-17T20:38:53.453Z,12.70
2023-01-17T20:42:38.796Z,11.35
2023-01-17T20:46:23.232Z,10.73
2023-01-17T20:50:09.572Z,10.32
2023-01-17T20:53:56.647Z,9.05
2023-01-17T20:57:39.592Z,9.18
2023-01-17T21:01:22.755Z,9.32
2023-01-17T21:05:05.111Z,8.73
2023-01-17T21:08:47.910Z,9.20
2023-01-17T21:12:30.977Z,9.27
2023-01-17T21:16:14.308Z,9.15
2023-01-17T21:19:56.143Z,8.70
2023-01-17T21:23:40.606Z,9.50
2023-01-17T21:27:22.488Z,9.25
2023-01-17T21:31:26.364Z,11.20
2023-01-17T21:35:08.542Z,9.38
2023-01-17T21:38:52.389Z,8.07
2023-01-17T21:42:34.240Z,7.60
2023-01-17T21:46:16.203Z,7.75
2023-01-17T21:49:58.046Z,7.72
2023-01-17T21:53:40.115Z,7.53
2023-01-17T21:57:41.430Z,8.65
2023-01-17T22:01:26.214Z,7.82
2023-01-17T22:05:09.319Z,8.88
2023-01-17T22:08:51.178Z,8.65
2023-01-17T22:12:33.047Z,6.93
2023-01-17T22:16:18.160Z,8.20
2023-01-17T22:19:59.941Z,8.43
2023-01-17T22:23:50.390Z,7.10
2023-01-17T22:27:32.131Z,7.63
2023-01-17T22:31:20.765Z,7.68
2023-01-17T22:35:03.941Z,7.97
2023-01-17T22:38:47.234Z,8.05
2023-01-17T22:42:28.953Z,7.88
2023-01-17T22:46:13.065Z,8.02
2023-01-17T22:49:54.881Z,7.70
2023-01-17T22:53:41.708Z,9.23
2023-01-17T22:57:23.518Z,8.20
2023-01-17T23:01:11.016Z,8.05
2023-01-17T23:04:52.816Z,7.93
2023-01-17T23:08:34.763Z,7.50
2023-01-17T23:12:16.735Z,8.73
2023-01-17T23:16:22.906Z,7.88
2023-01-17T23:20:05.764Z,7.95
2023-01-17T23:23:47.496Z,7.28
2023-01-17T23:27:59.837Z,6.70
2023-01-17T23:31:41.641Z,6.68
2023-01-17T23:35:28.663Z,6.85
2023-01-17T23:39:10.444Z,7.07
2023-01-17T23:43:10.858Z,6.47
2023-01-17T23:46:52.646Z,6.43
2023-01-17T23:50:34.595Z,7.18
2023-01-17T23:54:16.549Z,6.88
2023-01-17T23:57:58.411Z,7.32
